Time;durP1;ratioP1;P1;durP2;ratioP2;P2;SDS_P1;SDS_P2;PMS_P1;PMS_P2;Temp;Humidity;BMP_temperature;BMP_pressure;BME280_temperature;BME280_humidity;BME280_pressure;Samples;Min_cycle;Max_cycle;Signal;HPM_P1;HPM_P2
2022/05/27 00:00:21;;;;;;;4.95;2.67;;;;;;;14.77;81.36;101842.97;5011568;28;20030;-71
2022/05/27 00:02:54;;;;;;;6.95;2.42;;;;;;;14.78;81.33;101840.00;5007414;28;20076;-73
2022/05/27 00:05:29;;;;;;;7.00;2.75;;;;;;;14.73;82.00;101837.13;5031890;28;20057;-74
2022/05/27 00:08:03;;;;;;;7.60;2.70;;;;;;;14.75;81.29;101828.72;5031989;28;20059;-72
2022/05/27 00:10:33;;;;;;;8.02;2.75;;;;;;;14.74;81.63;101833.34;5031367;28;20045;-72
2022/05/27 00:12:59;;;;;;;6.22;2.33;;;;;;;14.80;81.34;101834.31;5031340;28;20120;-72
2022/05/27 00:15:24;;;;;;;9.65;2.70;;;;;;;14.71;82.26;101829.16;5033145;28;20057;-71
2022/05/27 00:17:49;;;;;;;8.23;2.58;;;;;;;14.76;81.70;101835.84;5031905;28;20456;-73
2022/05/27 00:20:15;;;;;;;6.28;2.28;;;;;;;14.73;82.39;101836.28;5032934;28;20037;-71
2022/05/27 00:22:40;;;;;;;6.10;2.97;;;;;;;14.75;82.35;101818.66;5033260;28;20116;-70
2022/05/27 00:25:07;;;;;;;10.50;2.53;;;;;;;14.75;82.55;101815.09;5033369;28;20112;-71
2022/05/27 00:27:33;;;;;;;8.30;3.05;;;;;;;14.73;83.03;101823.50;5028421;28;20030;-72
2022/05/27 00:29:58;;;;;;;9.68;2.60;;;;;;;14.66;82.95;101822.72;5013377;28;20030;-72
2022/05/27 00:32:24;;;;;;;9.18;2.45;;;;;;;14.65;83.57;101824.63;5013195;28;20057;-74
2022/05/27 00:34:49;;;;;;;8.13;2.70;;;;;;;14.60;84.03;101818.16;5013631;28;20628;-73
2022/05/27 00:37:14;;;;;;;11.68;2.70;;;;;;;14.62;83.78;101821.56;5013079;28;20387;-74
2022/05/27 00:39:40;;;;;;;9.10;2.60;;;;;;;14.65;83.23;101819.19;4995351;28;20041;-71
2022/05/27 00:42:06;;;;;;;7.68;2.70;;;;;;;14.62;83.83;101819.66;5013260;28;20029;-72
2022/05/27 00:44:32;;;;;;;7.78;2.83;;;;;;;14.67;83.43;101810.78;5030779;28;20458;-75
2022/05/27 00:47:15;;;;;;;6.88;2.45;;;;;;;14.71;83.38;101817.44;5032661;28;20116;-73
2022/05/27 00:49:59;;;;;;;9.05;2.58;;;;;;;14.67;83.09;101808.91;5032716;28;20035;-74
2022/05/27 00:52:30;;;;;;;8.52;2.92;;;;;;;14.64;83.43;101817.50;5032260;28;20034;-72
2022/05/27 00:54:55;;;;;;;7.45;2.80;;;;;;;14.66;84.01;101809.97;5032854;28;20086;-72
2022/05/27 00:57:28;;;;;;;7.80;2.88;;;;;;;14.62;84.35;101808.75;5032516;28;20037;-74
2022/05/27 01:00:07;;;;;;;9.23;2.90;;;;;;;14.62;84.73;101805.22;5032396;28;20040;-73
2022/05/27 01:02:36;;;;;;;11.23;2.90;;;;;;;14.58;85.10;101799.34;5022825;28;20046;-73
2022/05/27 01:05:05;;;;;;;7.72;2.90;;;;;;;14.58;85.21;101804.78;5012572;28;20038;-73
2022/05/27 01:07:31;;;;;;;11.80;3.13;;;;;;;14.55;86.26;101805.25;5012682;28;20029;-72
2022/05/27 01:09:58;;;;;;;8.52;2.97;;;;;;;14.54;86.67;101795.44;5012353;28;20068;-72
2022/05/27 01:12:50;;;;;;;12.15;3.50;;;;;;;14.59;87.02;101800.19;5012601;28;20030;-75
2022/05/27 01:15:34;;;;;;;;;;;;;;;14.66;85.61;101804.53;5012944;28;20084;-72
2022/05/27 01:18:05;;;;;;;14.88;3.20;;;;;;;14.47;87.97;101811.00;5022695;28;19975;-72
2022/05/27 01:20:46;;;;;;;12.35;3.60;;;;;;;14.46;88.35;101803.88;5031855;28;20025;-73
2022/05/27 01:23:38;;;;;;;10.90;3.63;;;;;;;14.44;88.23;101792.41;5032308;28;20037;-72
2022/05/27 01:26:34;;;;;;;11.55;3.60;;;;;;;14.43;89.24;101807.91;5032496;28;20029;-72
2022/05/27 01:29:17;;;;;;;10.88;3.83;;;;;;;14.31;90.63;101807.84;5032328;28;20366;-71
2022/05/27 01:31:50;;;;;;;13.05;4.43;;;;;;;14.21;91.63;101796.63;5030084;28;20385;-74
2022/05/27 01:34:26;;;;;;;11.30;3.88;;;;;;;14.13;92.89;101786.03;4994871;28;20076;-71
2022/05/27 01:37:22;;;;;;;12.23;4.57;;;;;;;14.20;92.42;101799.59;5012581;28;20068;-72
2022/05/27 01:40:01;;;;;;;12.32;4.25;;;;;;;14.08;94.10;101804.94;5007431;28;20045;-73
2022/05/27 01:42:38;;;;;;;14.45;4.18;;;;;;;14.09;93.57;101798.44;5012367;28;20084;-72
2022/05/27 01:45:10;;;;;;;11.80;4.35;;;;;;;14.02;94.05;101795.78;5012442;28;20080;-74
2022/05/27 01:47:46;;;;;;;18.67;4.88;;;;;;;13.93;95.70;101795.22;5022941;28;20040;-73
2022/05/27 01:50:15;;;;;;;9.63;4.40;;;;;;;13.96;95.99;101786.63;5032202;28;20026;-71
2022/05/27 01:52:44;;;;;;;12.95;4.53;;;;;;;13.90;96.76;101797.56;5031957;28;20474;-73
2022/05/27 01:55:27;;;;;;;13.52;4.75;;;;;;;13.88;97.12;101800.53;5032144;28;20372;-73
2022/05/27 01:58:16;;;;;;;14.75;4.63;;;;;;;13.86;97.58;101799.94;5032131;28;20065;-75
2022/05/27 02:00:44;;;;;;;13.80;4.78;;;;;;;13.83;97.86;101803.91;5027850;28;20022;-73
2022/05/27 02:03:22;;;;;;;12.73;5.07;;;;;;;13.76;99.14;101800.41;5031924;28;20039;-73
2022/05/27 02:05:59;;;;;;;14.80;5.00;;;;;;;13.82;98.67;101795.97;5031954;28;20504;-74
2022/05/27 02:08:34;;;;;;;10.50;4.68;;;;;;;13.71;99.83;101797.53;5031644;28;20029;-75
2022/05/27 02:11:07;;;;;;;15.73;5.72;;;;;;;13.63;100.00;101789.66;5031658;28;20053;-71
2022/05/27 02:13:40;;;;;;;14.23;5.15;;;;;;;13.63;100.00;101795.94;5032449;28;20044;-73
2022/05/27 02:16:10;;;;;;;17.48;5.95;;;;;;;13.64;100.00;101794.88;5017966;28;20034;-72
2022/05/27 02:18:46;;;;;;;13.65;5.63;;;;;;;13.67;100.00;101795.50;5015658;28;20033;-70
2022/05/27 02:21:24;;;;;;;17.88;6.07;;;;;;;13.63;100.00;101803.25;5015607;28;20076;-71
2022/05/27 02:23:58;;;;;;;11.75;5.43;;;;;;;13.57;100.00;101799.56;5015822;28;20101;-73
2022/05/27 02:26:29;;;;;;;14.50;6.15;;;;;;;13.57;100.00;101804.13;5015489;28;20033;-74
2022/05/27 02:29:10;;;;;;;13.63;6.30;;;;;;;13.60;100.00;101798.25;5016809;28;20029;-73
2022/05/27 02:31:38;;;;;;;15.15;6.43;;;;;;;13.44;100.00;101805.09;5035114;28;20030;-74
2022/05/27 02:36:56;;;;;;;14.93;5.97;;;;;;;13.40;100.00;101801.97;5015596;28;20086;-73
2022/05/27 02:39:21;;;;;;;13.32;6.45;;;;;;;13.42;100.00;101793.59;5015287;28;20040;-73
2022/05/27 02:42:08;;;;;;;14.73;6.93;;;;;;;13.41;100.00;101781.06;5015484;28;20030;-74
2022/05/27 02:44:45;;;;;;;14.88;6.85;;;;;;;13.33;100.00;101784.00;5015173;28;20041;-75
2022/05/27 02:47:48;;;;;;;13.40;6.80;;;;;;;13.39;100.00;101783.16;4997520;28;20116;-74
2022/05/27 02:50:31;;;;;;;14.90;7.18;;;;;;;13.36;100.00;101781.72;5024127;28;20521;-73
2022/05/27 02:53:11;;;;;;;18.90;7.60;;;;;;;13.28;100.00;101777.34;5035010;28;20090;-74
2022/05/27 02:55:55;;;;;;;13.27;7.15;;;;;;;13.27;100.00;101791.16;5034695;28;20026;-73
2022/05/27 02:58:21;;;;;;;12.00;7.00;;;;;;;13.26;100.00;101786.78;5034648;28;20398;-75
2022/05/27 03:00:46;;;;;;;13.75;7.60;;;;;;;13.22;100.00;101783.66;5031576;28;20018;-74
2022/05/27 03:03:12;;;;;;;15.63;7.70;;;;;;;13.28;100.00;101782.78;5035102;28;20447;-72
2022/05/27 03:06:02;;;;;;;12.23;7.70;;;;;;;13.26;100.00;101778.63;5018610;28;20034;-73
2022/05/27 03:08:36;;;;;;;15.65;7.43;;;;;;;13.24;100.00;101783.44;5034101;28;20033;-73
2022/05/27 03:11:13;;;;;;;13.32;8.20;;;;;;;13.18;100.00;101773.44;5034706;28;20049;-73
2022/05/27 03:13:44;;;;;;;15.25;8.45;;;;;;;13.22;100.00;101775.50;5034344;28;20029;-74
2022/05/27 03:16:28;;;;;;;13.80;7.93;;;;;;;13.22;100.00;101770.06;5034539;28;20061;-73
2022/05/27 03:18:56;;;;;;;9.73;7.75;;;;;;;13.20;100.00;101774.91;5034472;28;20374;-72
2022/05/27 03:21:34;;;;;;;16.95;8.65;;;;;;;13.23;100.00;101779.06;5034400;28;20352;-72
2022/05/27 03:24:21;;;;;;;13.95;9.05;;;;;;;13.19;100.00;101778.66;5021159;28;20042;-73
2022/05/27 03:26:59;;;;;;;14.20;9.00;;;;;;;13.20;100.00;101780.34;5013684;28;20157;-73
2022/05/27 03:29:44;;;;;;;14.45;9.13;;;;;;;13.20;100.00;101777.63;5012936;28;20038;-73
2022/05/27 03:32:20;;;;;;;12.23;8.63;;;;;;;13.24;100.00;101776.13;5013373;28;20386;-73
2022/05/27 03:34:50;;;;;;;13.85;9.50;;;;;;;13.23;100.00;101771.75;5014286;28;20118;-72
2022/05/27 03:37:29;;;;;;;16.42;9.43;;;;;;;13.27;100.00;101781.13;5015114;28;20064;-72
2022/05/27 03:40:06;;;;;;;13.82;10.15;;;;;;;13.23;100.00;101779.91;5034153;28;20616;-72
2022/05/27 03:42:35;;;;;;;16.73;10.35;;;;;;;13.24;100.00;101773.41;5034127;28;20479;-74
2022/05/27 03:45:08;;;;;;;12.85;9.80;;;;;;;13.26;100.00;101781.34;5033726;28;20041;-73
2022/05/27 03:47:34;;;;;;;16.05;10.45;;;;;;;13.28;100.00;101780.06;5033777;28;20037;-74
2022/05/27 03:50:00;;;;;;;17.25;10.30;;;;;;;13.27;100.00;101783.84;5033861;28;20051;-72
2022/05/27 03:52:32;;;;;;;13.68;11.00;;;;;;;13.28;100.00;101793.66;5015734;28;20573;-74
2022/05/27 03:54:58;;;;;;;16.08;10.75;;;;;;;13.33;100.00;101798.44;5033831;28;20470;-72
2022/05/27 03:57:23;;;;;;;16.73;10.70;;;;;;;13.34;100.00;101791.16;5028479;28;20084;-74
2022/05/27 03:59:48;;;;;;;12.27;8.27;;;;;;;13.28;100.00;101787.38;5013760;28;20356;-75
2022/05/27 04:02:13;;;;;;;9.18;5.20;;;;;;;13.27;100.00;101785.72;5023953;28;20079;-75
2022/05/27 04:04:39;;;;;;;7.70;3.97;;;;;;;13.21;100.00;101778.44;5033389;28;20033;-73
2022/05/27 04:07:04;;;;;;;7.05;4.00;;;;;;;13.23;100.00;101784.50;5033540;28;20062;-74
2022/05/27 04:09:32;;;;;;;6.25;3.40;;;;;;;13.16;100.00;101781.81;5032884;28;20053;-73
2022/05/27 04:11:57;;;;;;;9.05;3.63;;;;;;;13.16;100.00;101789.16;5032304;28;20025;-73
2022/05/27 04:14:23;;;;;;;5.97;3.45;;;;;;;13.17;100.00;101791.66;5015185;28;20038;-75
2022/05/27 04:16:48;;;;;;;7.10;3.55;;;;;;;13.20;100.00;101791.22;5013470;28;20037;-75
2022/05/27 04:19:16;;;;;;;6.47;4.22;;;;;;;13.23;100.00;101790.75;5013632;28;20038;-74
2022/05/27 04:21:41;;;;;;;7.70;5.20;;;;;;;13.28;100.00;101795.53;5013431;28;20065;-73
2022/05/27 04:24:07;;;;;;;9.25;5.70;;;;;;;13.29;100.00;101784.44;5012132;28;20057;-73
2022/05/27 04:26:33;;;;;;;8.57;5.95;;;;;;;13.34;100.00;101802.03;5013222;28;20030;-75
2022/05/27 04:29:00;;;;;;;11.65;7.88;;;;;;;13.36;100.00;101802.63;5029502;28;20111;-73
2022/05/27 04:31:25;;;;;;;12.48;7.13;;;;;;;13.40;100.00;101795.69;5031884;28;20110;-74
2022/05/27 04:33:50;;;;;;;11.00;7.32;;;;;;;13.42;100.00;101794.44;5032637;28;20493;-73
2022/05/27 04:36:15;;;;;;;14.63;7.90;;;;;;;13.45;100.00;101799.44;5033035;28;20035;-75
2022/05/27 04:38:42;;;;;;;14.57;7.72;;;;;;;13.47;100.00;101797.31;5032885;28;20096;-75
2022/05/27 04:41:07;;;;;;;13.27;8.00;;;;;;;13.46;100.00;101797.53;5033062;28;20112;-72
2022/05/27 04:43:34;;;;;;;12.10;8.45;;;;;;;13.49;100.00;101788.94;5017406;28;20114;-74
2022/05/27 04:46:00;;;;;;;12.38;8.63;;;;;;;13.56;100.00;101797.88;5011872;28;20033;-74
2022/05/27 04:48:25;;;;;;;13.23;8.60;;;;;;;13.54;100.00;101797.28;5013031;28;20045;-74
2022/05/27 04:50:51;;;;;;;12.50;8.55;;;;;;;13.55;100.00;101798.09;5011639;28;20032;-75
2022/05/27 04:53:16;;;;;;;13.68;9.35;;;;;;;13.61;100.00;101798.03;5013128;28;20456;-76
2022/05/27 04:55:42;;;;;;;14.80;8.75;;;;;;;13.65;100.00;101799.25;5012855;28;20447;-74
2022/05/27 04:58:11;;;;;;;16.08;9.40;;;;;;;13.61;100.00;101800.75;5013246;28;20034;-75
2022/05/27 05:00:43;;;;;;;20.17;8.77;;;;;;;13.67;100.00;101801.75;5013070;28;20037;-73
2022/05/27 05:03:10;;;;;;;16.45;9.20;;;;;;;13.69;100.00;101799.63;5022129;28;20178;-73
2022/05/27 05:05:36;;;;;;;16.70;8.95;;;;;;;13.72;100.00;101809.25;5032366;28;20045;-75
2022/05/27 05:08:15;;;;;;;18.63;8.98;;;;;;;13.75;100.00;101808.81;5032888;28;20032;-75
2022/05/27 05:10:40;;;;;;;17.63;8.73;;;;;;;13.79;100.00;101810.03;5030433;28;20050;-73
2022/05/27 05:13:06;;;;;;;15.15;8.57;;;;;;;13.79;100.00;101802.69;5031333;28;20114;-74
2022/05/27 05:15:31;;;;;;;17.48;8.98;;;;;;;13.85;100.00;101805.59;5032248;28;20064;-75
2022/05/27 05:17:57;;;;;;;19.05;8.90;;;;;;;13.89;100.00;101810.34;5022559;28;20037;-75
2022/05/27 05:20:29;;;;;;;20.83;9.63;;;;;;;13.92;100.00;101823.53;5004984;28;20038;-75
2022/05/27 05:22:54;;;;;;;18.85;9.10;;;;;;;13.96;100.00;101816.53;5012475;28;20422;-74
2022/05/27 05:25:21;;;;;;;19.88;9.73;;;;;;;13.95;100.00;101825.78;5012698;28;20056;-76
2022/05/27 05:27:46;;;;;;;18.08;8.82;;;;;;;13.96;100.00;101816.53;5027496;28;20415;-73
2022/05/27 05:30:14;;;;;;;18.65;8.32;;;;;;;13.98;100.00;101825.34;5012658;28;20033;-75
2022/05/27 05:32:40;;;;;;;19.60;8.43;;;;;;;14.02;100.00;101833.06;5017669;28;20032;-74
2022/05/27 05:35:07;;;;;;;18.63;8.20;;;;;;;14.05;100.00;101840.78;5026551;28;20030;-72
2022/05/27 05:37:32;;;;;;;18.60;8.20;;;;;;;14.04;100.00;101839.09;5012441;28;20440;-73
2022/05/27 05:39:58;;;;;;;24.60;8.60;;;;;;;14.07;100.00;101844.94;5012549;28;20058;-73
2022/05/27 05:42:23;;;;;;;21.38;8.15;;;;;;;14.11;100.00;101842.59;5012470;28;20032;-71
2022/05/27 05:44:48;;;;;;;20.10;7.80;;;;;;;14.10;100.00;101844.50;5012240;28;20041;-75
2022/05/27 05:47:14;;;;;;;16.83;7.28;;;;;;;14.12;100.00;101845.09;5012472;28;20471;-71
2022/05/27 05:49:39;;;;;;;18.15;8.10;;;;;;;14.12;100.00;101847.00;5028332;28;20040;-74
2022/05/27 05:52:05;;;;;;;16.77;5.97;;;;;;;14.15;100.00;101851.97;5036129;28;20037;-75
2022/05/27 05:54:30;;;;;;;18.73;6.90;;;;;;;14.15;100.00;101857.44;5034355;28;20398;-74
2022/05/27 05:57:00;;;;;;;17.60;6.00;;;;;;;14.12;100.00;101855.16;5039062;28;20079;-74
2022/05/27 05:59:31;;;;;;;17.92;6.55;;;;;;;14.11;100.00;101858.91;5054401;28;20037;-75
2022/05/27 06:01:58;;;;;;;14.98;5.75;;;;;;;14.15;100.00;101849.25;5040650;28;20483;-75
2022/05/27 06:04:23;;;;;;;15.95;6.43;;;;;;;14.18;100.00;101840.66;5034066;28;20117;-75
2022/05/27 06:06:48;;;;;;;13.30;4.93;;;;;;;14.25;100.00;101857.75;5035303;28;20112;-74
2022/05/27 06:09:14;;;;;;;16.65;5.18;;;;;;;14.22;100.00;101846.47;5035731;28;20041;-73
2022/05/27 06:11:39;;;;;;;18.75;5.50;;;;;;;14.24;100.00;101839.75;5035248;28;20092;-73
2022/05/27 06:14:05;;;;;;;17.75;5.07;;;;;;;14.25;100.00;101844.13;5035800;28;20478;-75
2022/05/27 06:16:31;;;;;;;15.88;4.75;;;;;;;14.31;100.00;101845.09;5035749;28;20382;-74
2022/05/27 06:18:56;;;;;;;15.07;4.60;;;;;;;14.31;100.00;101851.41;5016895;28;20033;-74
2022/05/27 06:21:21;;;;;;;18.23;4.60;;;;;;;14.38;100.00;101848.59;5015893;28;20030;-75
2022/05/27 06:23:47;;;;;;;14.60;4.30;;;;;;;14.43;100.00;101856.94;5014190;28;20042;-73
2022/05/27 06:26:12;;;;;;;10.90;3.63;;;;;;;14.42;100.00;101859.84;5015720;28;20113;-72
2022/05/27 06:34:25;;;;;;;10.80;3.55;;;;;;;14.47;98.12;101860.03;5016743;28;20084;-74
2022/05/27 06:37:05;;;;;;;12.90;3.60;;;;;;;14.46;96.17;101869.25;5035114;28;20041;-73
2022/05/27 06:39:33;;;;;;;15.93;3.97;;;;;;;14.52;98.18;101865.63;5033899;28;20021;-73
2022/05/27 06:41:58;;;;;;;10.45;3.33;;;;;;;14.59;98.82;101873.72;5034368;28;20130;-75
2022/05/27 06:44:23;;;;;;;10.32;3.40;;;;;;;14.65;98.69;101868.22;5035132;28;20049;-75
2022/05/27 06:46:51;;;;;;;22.15;4.03;;;;;;;14.70;99.61;101873.00;5034991;28;20049;-73
2022/05/27 06:49:19;;;;;;;11.73;3.20;;;;;;;14.74;93.70;101876.09;5035075;28;20048;-75
2022/05/27 06:51:46;;;;;;;9.85;2.97;;;;;;;14.69;96.21;101864.00;5017518;28;20037;-73
2022/05/27 06:54:13;;;;;;;11.05;3.17;;;;;;;14.81;95.35;101872.25;5027002;28;20030;-72
2022/05/27 06:56:40;;;;;;;12.32;2.90;;;;;;;14.76;92.56;101876.69;5016693;28;20033;-73
2022/05/27 06:59:07;;;;;;;10.52;2.90;;;;;;;14.77;91.52;101876.47;5017014;28;20040;-71
2022/05/27 07:01:34;;;;;;;12.27;3.30;;;;;;;14.79;92.32;101881.69;5030000;28;20496;-71
2022/05/27 07:04:07;;;;;;;13.77;2.72;;;;;;;14.81;87.82;101876.84;5029479;28;20048;-74
2022/05/27 07:06:43;;;;;;;10.88;2.88;;;;;;;14.87;88.96;101884.09;5012381;28;20033;-75
2022/05/27 07:09:20;;;;;;;11.73;2.78;;;;;;;14.92;87.08;101886.16;5029391;28;20034;-74
2022/05/27 07:11:51;;;;;;;13.68;3.13;;;;;;;14.94;84.96;101884.84;5016897;28;20500;-73
2022/05/27 07:14:17;;;;;;;10.20;3.00;;;;;;;15.01;87.55;101888.34;5009358;28;20112;-73
2022/05/27 07:16:44;;;;;;;10.02;3.40;;;;;;;15.05;85.10;101884.09;5014362;28;20367;-74
2022/05/27 07:19:10;;;;;;;6.88;3.00;;;;;;;15.12;82.48;101880.44;5014293;28;20065;-75
2022/05/27 07:21:41;;;;;;;10.43;3.08;;;;;;;15.10;82.66;101879.81;5014697;28;20068;-74
2022/05/27 07:24:10;;;;;;;12.38;3.08;;;;;;;15.09;80.57;101887.19;5014671;28;20514;-74
2022/05/27 07:26:37;;;;;;;10.32;3.25;;;;;;;15.13;81.30;101885.66;5014657;28;20034;-73
2022/05/27 07:29:04;;;;;;;10.30;3.10;;;;;;;15.11;80.09;101884.22;4999431;28;20061;-76
2022/05/27 07:31:29;;;;;;;8.27;2.70;;;;;;;15.15;79.72;101885.44;4994868;28;20045;-76
2022/05/27 07:33:55;;;;;;;11.15;2.90;;;;;;;15.17;79.96;101891.47;4994820;28;20034;-73
2022/05/27 07:36:21;;;;;;;10.90;3.22;;;;;;;15.27;79.56;101886.31;4995176;28;20077;-73
2022/05/27 07:38:47;;;;;;;10.13;2.75;;;;;;;15.24;77.21;101884.88;4994543;28;20041;-74
2022/05/27 07:41:13;;;;;;;11.45;2.88;;;;;;;15.29;80.54;101886.91;4994817;28;20152;-76
2022/05/27 07:43:38;;;;;;;13.55;2.90;;;;;;;15.39;78.90;101883.63;4994738;28;20492;-74
2022/05/27 07:46:04;;;;;;;6.93;2.28;;;;;;;15.42;77.14;101877.72;4994605;28;20034;-75
2022/05/27 07:48:29;;;;;;;6.93;2.90;;;;;;;15.50;75.49;101891.00;5011704;28;20038;-74
2022/05/27 07:50:55;;;;;;;11.55;3.03;;;;;;;15.52;77.52;101896.22;5014072;28;20056;-76
2022/05/27 07:53:20;;;;;;;12.68;2.95;;;;;;;15.57;75.82;101899.13;4996816;28;20042;-76
2022/05/27 07:55:45;;;;;;;12.05;3.00;;;;;;;15.61;76.14;101905.78;5013905;28;20486;-73
2022/05/27 07:58:11;;;;;;;7.57;2.60;;;;;;;15.59;75.14;101899.69;5012778;28;20026;-76
2022/05/27 08:00:37;;;;;;;10.93;3.20;;;;;;;15.53;76.35;101903.38;5010545;28;20056;-75
2022/05/27 08:03:03;;;;;;;16.00;3.95;;;;;;;15.57;74.88;101893.66;4997426;28;20121;-73
2022/05/27 08:05:31;;;;;;;9.52;3.30;;;;;;;15.60;76.38;101898.66;4977069;28;20122;-74
2022/05/27 08:07:58;;;;;;;9.77;3.00;;;;;;;15.70;76.26;101896.19;4993961;28;20066;-74
2022/05/27 08:10:27;;;;;;;13.88;3.28;;;;;;;15.81;76.48;101886.38;4992746;28;20034;-73
2022/05/27 08:12:52;;;;;;;9.65;3.28;;;;;;;15.91;77.71;101894.84;4993277;28;20455;-75
2022/05/27 08:15:18;;;;;;;14.48;3.72;;;;;;;15.92;74.19;101892.94;4994170;28;20049;-74
2022/05/27 08:17:43;;;;;;;11.48;3.67;;;;;;;15.82;74.00;101904.44;4993674;28;20034;-75
2022/05/27 08:20:12;;;;;;;10.23;2.70;;;;;;;15.66;76.03;101916.00;4992767;28;20031;-72
2022/05/27 08:22:38;;;;;;;12.55;3.22;;;;;;;15.48;77.80;101920.44;4994218;28;20372;-74
2022/05/27 08:25:04;;;;;;;10.10;2.92;;;;;;;15.38;78.51;101921.00;4993802;28;20037;-74
2022/05/27 08:27:29;;;;;;;18.10;3.28;;;;;;;15.31;79.39;101919.41;4992533;28;20390;-72
2022/05/27 08:29:55;;;;;;;13.68;3.28;;;;;;;15.30;79.36;101915.03;4993313;28;20057;-73
2022/05/27 08:32:20;;;;;;;11.60;3.17;;;;;;;15.39;79.71;101911.72;4994068;28;20027;-73
2022/05/27 08:40:51;;;;;;;10.85;3.60;;;;;;;15.93;74.43;101916.44;5011548;28;20045;-71
2022/05/27 08:43:48;;;;;;;14.52;3.08;;;;;;;16.06;75.96;101915.38;4993623;28;20054;-71
2022/05/27 08:46:34;;;;;;;14.32;3.50;;;;;;;16.06;74.07;101923.56;4979172;28;20072;-71
2022/05/27 08:49:05;;;;;;;10.30;3.20;;;;;;;15.87;73.17;101931.84;5009744;28;20466;-71
2022/05/27 08:51:40;;;;;;;13.20;3.38;;;;;;;15.91;72.91;101919.41;5013164;28;20038;-72
2022/05/27 08:54:10;;;;;;;8.75;3.20;;;;;;;15.92;66.83;101944.78;5027524;28;20053;-70
2022/05/27 08:59:28;;;;;;;20.08;4.07;;;;;;;15.84;71.01;101931.50;5019245;28;20120;-73
2022/05/27 09:02:27;;;;;;;16.63;3.67;;;;;;;15.97;73.64;101924.97;5010350;28;20057;-72
2022/05/27 09:05:17;;;;;;;13.88;3.10;;;;;;;16.00;65.58;101932.69;5012345;28;20509;-71
2022/05/27 09:08:23;;;;;;;8.95;2.78;;;;;;;16.10;69.03;101931.03;5021971;28;20036;-70
2022/05/27 09:10:59;;;;;;;13.70;3.05;;;;;;;16.21;63.37;101937.56;4974744;28;20594;-71
2022/05/27 09:13:36;;;;;;;16.63;2.88;;;;;;;16.33;63.46;101947.69;4974371;28;20034;-70
2022/05/27 09:16:13;;;;;;;10.07;2.83;;;;;;;16.31;62.91;101939.75;5016339;28;20045;-71
2022/05/27 09:19:20;;;;;;;8.85;2.40;;;;;;;16.36;63.48;101942.56;5052471;28;20033;-71
2022/05/27 09:22:06;;;;;;;14.10;2.60;;;;;;;16.30;60.44;101943.53;4993044;28;20045;-70
2022/05/27 09:24:49;;;;;;;11.57;2.80;;;;;;;16.26;61.12;101947.78;5019069;28;20108;-71
2022/05/27 09:27:21;;;;;;;10.25;2.95;;;;;;;16.23;63.18;101948.25;5014254;28;20382;-72
2022/05/27 09:30:04;;;;;;;12.02;3.00;;;;;;;16.11;61.28;101968.22;5031091;28;20072;-72
2022/05/27 09:32:44;;;;;;;9.50;2.70;;;;;;;15.96;60.60;101959.63;5030692;28;20066;-73
2022/05/27 09:35:55;;;;;;;11.93;2.70;;;;;;;16.01;60.49;101969.84;5030646;28;20056;-72
2022/05/27 09:38:25;;;;;;;11.10;2.42;;;;;;;16.09;62.19;101953.97;5026739;28;20445;-74
2022/05/27 09:41:24;;;;;;;10.65;2.85;;;;;;;16.30;61.35;101957.19;5031476;28;20030;-73
2022/05/27 09:43:56;;;;;;;9.05;2.80;;;;;;;16.31;60.34;101964.31;4977737;28;20487;-72
2022/05/27 09:46:29;;;;;;;9.50;2.97;;;;;;;16.26;62.38;101980.56;5032190;28;20035;-73
2022/05/27 09:48:56;;;;;;;10.48;3.05;;;;;;;16.16;58.54;101981.16;5041024;28;20040;-72
2022/05/27 09:51:24;;;;;;;13.70;3.05;;;;;;;16.13;60.45;101971.53;5031982;28;20038;-73
2022/05/27 09:53:53;;;;;;;8.52;2.65;;;;;;;16.25;57.77;101998.03;5031974;28;20025;-71
2022/05/27 09:56:43;;;;;;;12.35;2.85;;;;;;;16.26;57.00;101997.81;5035180;28;20033;-72
2022/05/27 09:59:36;;;;;;;12.63;2.83;;;;;;;16.18;58.59;101987.22;5031830;28;20025;-72
2022/05/27 10:02:33;;;;;;;11.32;3.13;;;;;;;16.36;58.14;101983.56;5028381;28;20379;-71
2022/05/27 10:05:15;;;;;;;12.95;2.92;;;;;;;16.39;57.63;101985.00;5031928;28;20500;-72
2022/05/27 10:07:51;;;;;;;10.43;3.10;;;;;;;16.47;58.48;101993.66;5032094;28;20052;-72
2022/05/27 10:10:34;;;;;;;14.40;2.92;;;;;;;16.40;56.53;101992.13;5030294;28;20237;-72
2022/05/27 10:13:20;;;;;;;10.88;2.85;;;;;;;16.39;54.92;101991.28;5030523;28;20069;-72
2022/05/27 10:15:46;;;;;;;11.85;2.80;;;;;;;16.45;55.40;101984.88;5030750;28;20112;-72
2022/05/27 10:18:23;;;;;;;11.05;2.35;;;;;;;16.54;53.73;101987.25;5031705;28;20108;-72
2022/05/27 10:21:16;;;;;;;12.40;3.47;;;;;;;16.56;53.98;101980.50;5030551;28;20041;-72
2022/05/27 10:23:49;;;;;;;9.85;2.35;;;;;;;16.53;51.80;101982.84;5022354;28;20045;-72
2022/05/27 10:26:25;;;;;;;13.73;3.08;;;;;;;16.66;53.64;101988.09;5015396;28;20535;-71
2022/05/27 10:29:16;;;;;;;11.65;2.78;;;;;;;16.79;52.58;101985.09;5024094;28;20033;-72
2022/05/27 10:31:55;;;;;;;9.90;2.38;;;;;;;16.72;52.24;101978.09;5031834;28;20471;-72
2022/05/27 10:34:45;;;;;;;14.35;3.55;;;;;;;16.62;53.63;101984.16;5032394;28;20036;-72
2022/05/27 10:37:16;;;;;;;11.48;2.88;;;;;;;16.53;53.83;101986.44;5035102;28;20108;-71
2022/05/27 10:39:56;;;;;;;9.65;2.50;;;;;;;16.67;53.25;101987.03;5035233;28;20037;-72
2022/05/27 10:42:31;;;;;;;14.60;2.90;;;;;;;16.70;51.10;101985.69;5031667;28;20033;-72
2022/05/27 10:45:07;;;;;;;13.30;2.90;;;;;;;16.60;52.89;101992.59;5014830;28;20418;-72
2022/05/27 10:47:54;;;;;;;12.27;3.45;;;;;;;16.55;54.07;101997.94;5015677;28;20080;-72
2022/05/27 10:50:44;;;;;;;12.35;2.85;;;;;;;16.30;54.14;101995.44;5015136;28;20030;-72
2022/05/27 10:53:46;;;;;;;13.18;3.03;;;;;;;16.29;53.92;101997.34;5014765;28;20033;-72
2022/05/27 11:02:03;;;;;;;10.95;2.85;;;;;;;16.41;53.75;101997.34;5014660;28;20026;-71
2022/05/27 11:02:52;;;;;;;12.27;2.60;;;;;;;16.73;51.14;101998.91;5027534;28;20091;-70
2022/05/27 11:05:33;;;;;;;9.07;2.60;;;;;;;16.82;49.63;102002.94;5034762;28;20030;-73
2022/05/27 11:08:25;;;;;;;10.52;2.50;;;;;;;17.00;48.86;101991.06;5033470;28;20068;-71
2022/05/27 11:10:57;;;;;;;;;;;;;;;17.10;48.80;101990.44;5034988;28;20057;-71
2022/05/27 11:16:38;;;;;;;8.13;2.55;;;;;;;16.97;50.78;101995.09;5034400;28;20457;-70
2022/05/27 11:19:09;;;;;;;13.07;3.70;;;;;;;17.12;50.79;101989.13;5034083;28;20033;-71
2022/05/27 11:22:05;;;;;;;13.88;3.63;;;;;;;17.22;51.23;101998.63;5034286;28;20033;-74
2022/05/27 11:25:04;;;;;;;11.95;2.33;;;;;;;17.20;51.71;101995.31;5034543;28;20037;-72
2022/05/27 11:28:05;;;;;;;14.00;2.88;;;;;;;17.13;50.35;101998.97;5034161;28;20425;-76
2022/05/27 11:31:05;;;;;;;12.43;2.90;;;;;;;17.04;51.34;102003.16;5027694;28;20036;-73
2022/05/27 11:33:39;;;;;;;11.27;2.67;;;;;;;17.08;49.62;102004.34;5034240;28;20394;-73
2022/05/27 11:36:31;;;;;;;12.50;2.75;;;;;;;16.99;50.46;101997.59;5050922;28;20064;-74
2022/05/27 11:39:05;;;;;;;13.20;3.28;;;;;;;16.88;53.38;102002.00;5053866;28;20057;-73
2022/05/27 11:41:43;;;;;;;13.32;3.15;;;;;;;16.71;52.02;102010.06;5054068;28;20032;-73
2022/05/27 11:44:26;;;;;;;10.63;2.65;;;;;;;16.61;52.77;101996.19;5053531;28;20029;-74
2022/05/27 11:47:03;;;;;;;14.07;3.30;;;;;;;16.71;52.68;102015.53;5035456;28;20033;-72
2022/05/27 11:49:52;;;;;;;12.02;2.85;;;;;;;16.84;52.73;102009.00;5040858;28;20038;-73
2022/05/27 11:52:46;;;;;;;10.73;3.15;;;;;;;16.94;50.60;102013.88;5024564;28;20067;-73
2022/05/27 11:55:42;;;;;;;8.90;2.60;;;;;;;16.95;51.33;102010.06;5018464;28;20083;-74
2022/05/27 11:58:19;;;;;;;12.52;2.80;;;;;;;17.15;50.97;102010.53;5033654;28;20029;-72
2022/05/27 12:00:50;;;;;;;9.35;2.63;;;;;;;17.24;47.21;102001.94;5029909;28;20505;-73
2022/05/27 12:03:24;;;;;;;10.90;3.17;;;;;;;17.35;47.28;102023.81;5033625;28;20041;-73
2022/05/27 12:05:54;;;;;;;14.38;3.03;;;;;;;17.15;48.83;102016.00;5033632;28;20039;-72
2022/05/27 12:08:52;;;;;;;18.63;3.40;;;;;;;17.06;49.28;102024.81;5033630;28;20064;-74